Ashgabat Airport


Codes: UTAA/ASB
Name: Ashgabat Airport
City: Ashgabat
Country: Turkmenistan
Elevation: 692 ft.
Wikipedia:

Photos at Ashgabat Airport


   Photos courtesy of SpottingLog. You can add your own sightings and photos by signing up for a free trial today.



No photos found.

Weather at Ashgabat Airport


Time (UTC)DescriptionTempratureWindCloud coverageVisibilityPressureHumidity
25-Jun-2024 15:00Broken Clouds38°C16 mph, E51%10000m1003hPa14%
25-Jun-2024 18:00Scattered Clouds36°C9 mph, SE33%10000m1003hPa16%
25-Jun-2024 21:00Overcast Clouds33°C9 mph, SE92%10000m1002hPa18%
26-Jun-2024 00:00Scattered Clouds31°C7 mph, SE46%10000m1003hPa20%
26-Jun-2024 03:00Clear Sky32°C4 mph, E2%10000m1004hPa18%
26-Jun-2024 06:00Clear Sky36°C11 mph, E3%10000m1003hPa14%
26-Jun-2024 09:00Scattered Clouds39°C13 mph, E44%10000m1001hPa12%
26-Jun-2024 12:00Scattered Clouds40°C16 mph, E37%10000m999hPa11%
26-Jun-2024 15:00Overcast Clouds38°C11 mph, E98%10000m1000hPa11%
26-Jun-2024 18:00Overcast Clouds35°C9 mph, SW97%10000m1001hPa17%
26-Jun-2024 21:00Scattered Clouds34°C4 mph, W42%10000m1001hPa16%
27-Jun-2024 00:00Scattered Clouds32°C9 mph, W43%10000m1002hPa22%
27-Jun-2024 03:00Broken Clouds32°C13 mph, NW56%10000m1003hPa27%
27-Jun-2024 06:00Scattered Clouds35°C18 mph, NW43%10000m1005hPa24%
27-Jun-2024 09:00Broken Clouds36°C16 mph, NW82%10000m1005hPa25%
27-Jun-2024 12:00Broken Clouds37°C16 mph, N51%10000m1005hPa25%
27-Jun-2024 15:00Scattered Clouds33°C18 mph, NW44%10000m1007hPa36%
27-Jun-2024 18:00Scattered Clouds30°C13 mph, NW33%10000m1009hPa38%
27-Jun-2024 21:00Scattered Clouds30°C13 mph, NW44%10000m1009hPa38%
28-Jun-2024 00:00Broken Clouds28°C9 mph, NW51%10000m1010hPa43%
28-Jun-2024 03:00Broken Clouds27°C7 mph, NW84%10000m1012hPa45%
28-Jun-2024 06:00Overcast Clouds29°C4 mph, NE91%10000m1011hPa40%
28-Jun-2024 09:00Overcast Clouds31°C7 mph, NE98%10000m1009hPa34%
28-Jun-2024 12:00Broken Clouds34°C9 mph, NE80%10000m1007hPa30%
28-Jun-2024 15:00Clear Sky33°C11 mph, NE0%10000m1006hPa30%
28-Jun-2024 18:00Clear Sky32°C4 mph, E1%10000m1007hPa33%
28-Jun-2024 21:00Broken Clouds30°C4 mph, NE52%10000m1007hPa26%
29-Jun-2024 00:00Scattered Clouds29°C2 mph, N35%10000m1007hPa24%
29-Jun-2024 03:00Light Rain28°C2 mph, NW100%10000m1009hPa29%
29-Jun-2024 06:00Light Rain30°C4 mph, NE97%10000m1009hPa25%
29-Jun-2024 09:00Scattered Clouds33°C4 mph, E44%10000m1007hPa20%
29-Jun-2024 12:00Light Rain36°C9 mph, N25%10000m1006hPa17%
29-Jun-2024 15:00Clear Sky34°C11 mph, NE0%10000m1007hPa19%
29-Jun-2024 18:00Few Clouds33°C2 mph, W17%10000m1008hPa21%
29-Jun-2024 21:00Scattered Clouds31°C0 mph, NE28%10000m1008hPa24%
30-Jun-2024 00:00Scattered Clouds30°C18 mph, NW38%10000m1009hPa28%
30-Jun-2024 03:00Few Clouds28°C20 mph, NW18%10000m1012hPa32%
30-Jun-2024 06:00Clear Sky30°C11 mph, NW10%10000m1011hPa25%
30-Jun-2024 09:00Clear Sky33°C9 mph, NW0%10000m1010hPa22%
30-Jun-2024 12:00Few Clouds34°C11 mph, NW20%10000m1008hPa20%